Time;durP1;ratioP1;P1;durP2;ratioP2;P2;SDS_P1;SDS_P2;PMS_P1;PMS_P2;Temp;Humidity;BMP_temperature;BMP_pressure;BME280_temperature;BME280_humidity;BME280_pressure;Samples;Min_cycle;Max_cycle;Signal;HPM_P1;HPM_P2
2021/07/02 00:01:57;;;;;;;3.85;3.50;;;20.50;86.40;;;;;;5058932;28;20227;-73
2021/07/02 00:04:22;;;;;;;5.22;2.97;;;20.50;86.10;;;;;;5070588;28;20688;-73
2021/07/02 00:06:48;;;;;;;3.60;2.92;;;20.50;86.10;;;;;;5066199;28;20199;-73
2021/07/02 00:09:14;;;;;;;2.88;2.67;;;20.40;86.60;;;;;;5065990;28;20242;-73
2021/07/02 00:11:39;;;;;;;3.15;2.88;;;20.40;86.40;;;;;;5061542;28;20187;-72
2021/07/02 00:14:06;;;;;;;3.85;2.88;;;20.40;86.10;;;;;;5075801;28;20197;-73
2021/07/02 00:16:35;;;;;;;8.20;3.00;;;20.40;86.10;;;;;;5066209;28;20251;-74
2021/07/02 00:19:02;;;;;;;3.75;3.35;;;20.40;86.30;;;;;;5067187;28;20198;-73
2021/07/02 00:21:28;;;;;;;4.32;3.97;;;20.40;86.40;;;;;;5067524;28;20187;-73
2021/07/02 00:23:54;;;;;;;4.60;2.53;;;20.40;86.80;;;;;;5066059;28;21911;-73
2021/07/02 00:26:19;;;;;;;4.25;2.72;;;20.30;86.80;;;;;;5064864;28;20185;-73
2021/07/02 00:28:45;;;;;;;3.25;3.05;;;20.30;86.80;;;;;;5064427;28;20219;-73
2021/07/02 00:31:11;;;;;;;4.38;2.83;;;20.40;86.30;;;;;;5060391;28;20552;-73
2021/07/02 00:33:37;;;;;;;6.28;3.92;;;20.30;86.80;;;;;;5065979;28;20262;-74
2021/07/02 00:36:03;;;;;;;3.63;3.03;;;20.40;86.60;;;;;;5066673;28;20738;-73
2021/07/02 00:38:29;;;;;;;5.93;3.00;;;20.40;86.30;;;;;;5069837;28;20204;-73
2021/07/02 00:40:55;;;;;;;3.00;2.72;;;20.40;86.10;;;;;;5069151;28;20187;-74
2021/07/02 00:43:22;;;;;;;3.35;2.15;;;20.40;86.40;;;;;;5065932;28;20224;-73
2021/07/02 00:45:49;;;;;;;11.35;2.58;;;20.40;86.40;;;;;;5075459;28;20202;-73
2021/07/02 00:48:15;;;;;;;6.10;2.97;;;20.40;86.40;;;;;;5061302;28;20191;-72
2021/07/02 00:50:43;;;;;;;2.92;2.60;;;20.40;86.30;;;;;;5065995;28;20182;-73
2021/07/02 00:53:09;;;;;;;3.65;2.50;;;20.30;87.30;;;;;;5066324;28;20186;-73
2021/07/02 00:55:35;;;;;;;4.45;2.90;;;20.30;86.80;;;;;;5071984;28;20182;-73
2021/07/02 00:58:01;;;;;;;4.40;2.72;;;20.20;87.40;;;;;;5064309;28;20183;-74
2021/07/02 01:00:26;;;;;;;4.72;2.50;;;20.20;88.10;;;;;;5061088;28;20194;-73
2021/07/02 01:02:52;;;;;;;4.05;3.17;;;20.10;88.10;;;;;;5065156;28;20304;-73
2021/07/02 01:05:18;;;;;;;2.80;2.60;;;20.10;88.50;;;;;;5060232;28;20191;-72
2021/07/02 01:07:44;;;;;;;4.32;2.83;;;20.00;87.80;;;;;;5058781;28;20183;-73
2021/07/02 01:10:11;;;;;;;5.55;2.70;;;20.00;88.40;;;;;;5063021;28;20214;-73
2021/07/02 01:12:39;;;;;;;4.45;2.53;;;20.00;88.90;;;;;;5062006;28;20182;-73
2021/07/02 01:15:17;;;;;;;7.70;3.03;;;20.00;88.30;;;;;;5065543;28;20221;-73
2021/07/02 01:17:42;;;;;;;2.72;2.53;;;20.00;88.20;;;;;;5066123;28;20198;-73
2021/07/02 01:20:09;;;;;;;6.53;2.95;;;20.00;88.70;;;;;;5066098;28;20679;-73
2021/07/02 01:22:34;;;;;;;4.80;2.55;;;20.00;88.60;;;;;;5064272;28;20213;-73
2021/07/02 01:25:00;;;;;;;4.70;2.30;;;20.00;88.90;;;;;;5062218;28;20191;-73
2021/07/02 01:27:26;;;;;;;2.30;2.20;;;20.00;88.70;;;;;;5067276;28;20213;-73
2021/07/02 01:29:51;;;;;;;5.72;2.53;;;20.00;88.10;;;;;;5064183;28;20317;-73
2021/07/02 01:32:18;;;;;;;5.40;2.45;;;20.00;88.40;;;;;;5065544;28;20219;-73
2021/07/02 01:34:44;;;;;;;2.47;2.28;;;20.00;88.10;;;;;;5066256;28;20186;-74
2021/07/02 01:37:12;;;;;;;2.92;1.95;;;19.90;88.10;;;;;;5065707;28;20258;-73
2021/07/02 01:39:38;;;;;;;2.35;2.25;;;19.90;87.60;;;;;;5067180;28;20252;-73
2021/07/02 01:42:08;;;;;;;3.83;2.53;;;19.90;87.90;;;;;;5060037;28;20182;-74
2021/07/02 01:44:34;;;;;;;2.45;2.30;;;19.90;87.80;;;;;;5060777;28;20680;-72
2021/07/02 01:47:00;;;;;;;1.90;1.80;;;19.90;87.90;;;;;;5063801;28;20183;-73
2021/07/02 01:49:26;;;;;;;2.20;2.08;;;19.90;87.70;;;;;;5066829;28;20244;-73
2021/07/02 01:51:52;;;;;;;2.85;1.77;;;19.80;87.80;;;;;;5066749;28;20199;-74
2021/07/02 01:54:19;;;;;;;1.23;1.23;;;19.80;87.60;;;;;;5069900;28;20236;-74
2021/07/02 01:56:50;;;;;;;1.52;1.45;;;19.80;87.40;;;;;;5068902;28;20179;-74
2021/07/02 01:59:17;;;;;;;1.65;1.52;;;19.80;86.70;;;;;;5067698;28;20183;-75
2021/07/02 02:01:44;;;;;;;1.48;1.38;;;19.80;86.90;;;;;;5069445;28;20193;-73
2021/07/02 02:04:10;;;;;;;4.22;1.60;;;19.90;86.30;;;;;;5063416;28;20183;-74
2021/07/02 02:06:36;;;;;;;1.60;1.50;;;19.80;86.50;;;;;;5068992;28;20245;-73
2021/07/02 02:09:03;;;;;;;3.13;1.58;;;19.80;86.20;;;;;;5084826;28;20801;-73
2021/07/02 02:11:29;;;;;;;2.40;1.35;;;19.80;86.00;;;;;;5069555;28;20209;-73
2021/07/02 02:13:55;;;;;;;1.25;1.15;;;19.80;85.90;;;;;;5069378;28;20182;-74
2021/07/02 02:16:21;;;;;;;2.78;1.20;;;19.80;85.30;;;;;;5069595;28;20222;-74
2021/07/02 02:18:46;;;;;;;2.78;1.60;;;19.80;85.20;;;;;;5068870;28;20680;-74
2021/07/02 02:21:12;;;;;;;1.25;1.25;;;19.80;85.00;;;;;;5069170;28;21020;-74
2021/07/02 02:23:38;;;;;;;1.50;1.40;;;19.80;85.20;;;;;;5063026;28;20182;-74
2021/07/02 02:26:03;;;;;;;2.38;1.48;;;19.80;85.30;;;;;;5066759;28;20182;-74
2021/07/02 02:28:29;;;;;;;1.55;1.17;;;19.80;84.90;;;;;;5066358;28;20730;-74
2021/07/02 02:30:55;;;;;;;1.08;1.08;;;19.80;84.30;;;;;;5068925;28;20186;-74
2021/07/02 02:33:20;;;;;;;1.45;1.42;;;19.80;84.70;;;;;;5067125;28;20260;-73
2021/07/02 02:35:46;;;;;;;1.95;1.33;;;19.80;84.40;;;;;;5069769;28;20171;-73
2021/07/02 02:38:12;;;;;;;0.95;0.82;;;19.90;84.30;;;;;;5065721;28;20633;-73
2021/07/02 02:40:38;;;;;;;1.25;1.15;;;19.80;84.10;;;;;;5067725;28;20218;-74
2021/07/02 02:43:03;;;;;;;1.30;1.20;;;19.80;84.00;;;;;;5068345;28;20569;-74
2021/07/02 02:45:29;;;;;;;4.32;1.10;;;19.80;84.20;;;;;;5068294;28;20186;-74
2021/07/02 02:47:55;;;;;;;1.02;0.95;;;19.80;83.50;;;;;;5059349;28;20187;-74
2021/07/02 02:50:21;;;;;;;1.42;1.25;;;19.80;83.90;;;;;;5066657;28;20215;-74
2021/07/02 02:52:46;;;;;;;0.90;0.90;;;19.80;83.30;;;;;;5069385;28;20201;-74
2021/07/02 02:55:13;;;;;;;0.95;0.80;;;19.80;83.20;;;;;;5069506;28;20607;-74
2021/07/02 02:57:38;;;;;;;1.75;1.00;;;19.80;83.10;;;;;;5063375;28;20183;-74
2021/07/02 03:00:08;;;;;;;1.00;1.00;;;19.80;83.40;;;;;;5065407;28;20194;-74
2021/07/02 03:02:33;;;;;;;1.50;1.10;;;19.70;83.00;;;;;;5068325;28;20269;-74
2021/07/02 03:04:59;;;;;;;1.20;1.10;;;19.70;83.20;;;;;;5065548;28;20269;-74
2021/07/02 03:07:25;;;;;;;0.80;0.80;;;19.70;84.00;;;;;;5063081;28;20285;-74
2021/07/02 03:09:51;;;;;;;0.88;0.88;;;19.60;83.60;;;;;;5067644;28;20694;-73
2021/07/02 03:12:16;;;;;;;2.42;0.88;;;19.60;84.10;;;;;;5064555;28;20179;-73
2021/07/02 03:14:42;;;;;;;1.05;1.02;;;19.60;83.80;;;;;;5057698;28;20199;-73
2021/07/02 03:17:08;;;;;;;2.35;1.20;;;19.50;84.40;;;;;;5067728;28;20201;-73
2021/07/02 03:19:33;;;;;;;1.60;0.73;;;19.40;84.40;;;;;;5067430;28;20222;-73
2021/07/02 03:21:59;;;;;;;1.05;1.05;;;19.40;84.40;;;;;;5068365;28;20735;-74
2021/07/02 03:24:25;;;;;;;1.58;1.10;;;19.40;84.80;;;;;;5060892;28;20186;-73
2021/07/02 03:26:50;;;;;;;0.60;0.60;;;19.30;85.00;;;;;;5068399;28;20171;-74
2021/07/02 03:29:16;;;;;;;0.80;0.80;;;19.30;85.20;;;;;;5066406;28;20242;-74
2021/07/02 03:31:42;;;;;;;1.30;1.25;;;19.30;86.00;;;;;;5068368;28;20182;-74
2021/07/02 03:34:07;;;;;;;1.05;1.05;;;19.20;86.50;;;;;;5067205;28;20179;-73
2021/07/02 03:36:34;;;;;;;1.10;1.10;;;19.20;86.20;;;;;;5068402;28;20190;-74
2021/07/02 03:39:00;;;;;;;2.05;1.05;;;19.10;87.00;;;;;;5082561;28;20187;-73
2021/07/02 03:41:26;;;;;;;1.52;1.10;;;19.10;87.10;;;;;;5068374;28;20274;-74
2021/07/02 03:43:52;;;;;;;1.25;1.10;;;19.00;87.50;;;;;;5068399;28;20273;-73
2021/07/02 03:46:17;;;;;;;1.55;1.08;;;19.00;87.70;;;;;;5064150;28;20179;-74
2021/07/02 03:48:43;;;;;;;1.17;1.17;;;19.00;88.00;;;;;;5061338;28;20247;-74
2021/07/02 03:51:09;;;;;;;0.93;0.93;;;18.90;88.20;;;;;;5065691;28;20271;-73
2021/07/02 03:53:34;;;;;;;1.33;1.15;;;18.90;87.80;;;;;;5066821;28;20191;-73
2021/07/02 03:56:01;;;;;;;1.00;1.00;;;18.90;88.50;;;;;;5067833;28;20217;-76
2021/07/02 03:58:27;;;;;;;1.08;1.08;;;18.90;89.10;;;;;;5083305;28;20187;-74
2021/07/02 04:00:53;;;;;;;0.90;0.90;;;18.90;89.20;;;;;;5068661;28;20252;-74
2021/07/02 04:03:18;;;;;;;1.02;1.02;;;18.90;89.30;;;;;;5067018;28;20179;-74
2021/07/02 04:05:44;;;;;;;1.15;1.15;;;18.90;89.10;;;;;;5066691;28;20178;-74
2021/07/02 04:08:13;;;;;;;1.20;1.15;;;18.90;89.50;;;;;;5053619;28;20239;-73
2021/07/02 04:10:39;;;;;;;1.33;1.30;;;18.90;89.20;;;;;;5064191;28;20213;-73
2021/07/02 04:13:05;;;;;;;6.22;1.08;;;18.90;89.10;;;;;;5066279;28;20750;-74
2021/07/02 04:15:32;;;;;;;1.42;0.90;;;18.90;88.20;;;;;;5067071;28;20269;-74
2021/07/02 04:17:57;;;;;;;3.63;1.20;;;19.00;88.20;;;;;;5064248;28;20214;-73
2021/07/02 04:20:23;;;;;;;1.77;1.63;;;19.00;87.90;;;;;;5066770;28;20291;-74
2021/07/02 04:22:49;;;;;;;1.13;1.13;;;19.10;87.90;;;;;;5061364;28;20638;-74
2021/07/02 04:25:14;;;;;;;1.67;1.10;;;19.10;88.70;;;;;;5066875;28;20191;-74
2021/07/02 04:27:41;;;;;;;4.32;1.40;;;19.20;88.80;;;;;;5067567;28;20712;-74
2021/07/02 04:30:09;;;;;;;1.35;1.00;;;19.20;88.30;;;;;;5067463;28;20225;-74
2021/07/02 04:32:36;;;;;;;0.90;0.90;;;19.20;88.30;;;;;;5066446;28;20187;-74
2021/07/02 04:35:06;;;;;;;1.10;1.10;;;19.20;88.40;;;;;;5064880;28;20219;-74
2021/07/02 04:37:32;;;;;;;1.65;1.55;;;19.20;88.20;;;;;;5066438;28;20174;-75
2021/07/02 04:39:57;;;;;;;1.45;1.45;;;19.30;88.20;;;;;;5067457;28;20181;-73
2021/07/02 04:42:23;;;;;;;2.33;2.10;;;19.30;89.00;;;;;;5066991;28;20187;-74
2021/07/02 04:44:48;;;;;;;1.48;1.48;;;19.20;88.70;;;;;;5062009;28;20176;-74
2021/07/02 04:47:14;;;;;;;2.03;1.92;;;19.20;89.20;;;;;;5065380;28;20648;-74
2021/07/02 04:49:40;;;;;;;1.88;1.88;;;19.20;89.50;;;;;;5066908;28;20658;-72
2021/07/02 04:52:06;;;;;;;3.08;2.80;;;19.10;89.20;;;;;;5066098;28;20191;-73
2021/07/02 04:54:32;;;;;;;3.20;2.92;;;19.00;90.10;;;;;;5067246;28;20240;-74
2021/07/02 04:56:59;;;;;;;3.13;3.03;;;18.90;90.20;;;;;;5065396;28;20186;-72
2021/07/02 04:59:30;;;;;;;3.50;3.30;;;18.90;90.70;;;;;;5065255;28;20256;-74
2021/07/02 05:01:57;;;;;;;3.35;3.22;;;18.80;90.30;;;;;;5065573;28;20232;-73
2021/07/02 05:04:23;;;;;;;3.60;3.40;;;18.80;90.60;;;;;;5063198;28;20237;-73
2021/07/02 05:06:48;;;;;;;3.95;3.05;;;18.80;90.80;;;;;;5069758;28;20655;-74
2021/07/02 05:09:14;;;;;;;3.33;2.58;;;18.80;90.80;;;;;;5065140;28;20214;-74
2021/07/02 05:11:40;;;;;;;2.88;2.78;;;18.80;90.60;;;;;;5066716;28;20186;-73
2021/07/02 05:14:07;;;;;;;3.78;3.28;;;18.80;91.00;;;;;;5066306;28;20222;-73
2021/07/02 05:16:33;;;;;;;3.03;2.92;;;18.80;91.30;;;;;;5065076;28;20183;-73
2021/07/02 05:18:59;;;;;;;3.70;3.40;;;18.80;90.70;;;;;;5063602;28;20615;-72
2021/07/02 05:21:24;;;;;;;3.50;3.40;;;18.90;90.90;;;;;;5064170;28;20679;-72
2021/07/02 05:23:50;;;;;;;3.67;3.47;;;18.90;90.60;;;;;;5067937;28;20187;-73
2021/07/02 05:26:16;;;;;;;3.70;3.60;;;18.90;90.60;;;;;;5070846;28;20189;-73
2021/07/02 05:28:41;;;;;;;3.28;3.03;;;18.90;90.30;;;;;;5070299;28;20769;-73
2021/07/02 05:31:08;;;;;;;3.05;3.00;;;18.90;90.60;;;;;;5069278;28;20179;-73
2021/07/02 05:33:33;;;;;;;3.28;3.17;;;19.00;90.30;;;;;;5084722;28;20572;-72
2021/07/02 05:36:00;;;;;;;3.72;3.40;;;19.00;90.30;;;;;;5083433;28;20183;-73
2021/07/02 05:38:26;;;;;;;4.20;4.00;;;19.00;90.40;;;;;;5066396;28;20184;-73
2021/07/02 05:40:54;;;;;;;4.45;3.72;;;19.00;90.20;;;;;;5068541;28;20266;-72
2021/07/02 05:43:24;;;;;;;3.65;3.55;;;19.00;90.30;;;;;;5066727;28;20262;-72
2021/07/02 05:45:50;;;;;;;3.72;3.42;;;19.00;90.60;;;;;;5065154;28;20183;-73
2021/07/02 05:48:18;;;;;;;3.65;3.35;;;19.00;90.50;;;;;;5063112;28;20213;-72
2021/07/02 05:50:44;;;;;;;3.50;3.40;;;19.00;90.20;;;;;;5061772;28;20179;-72
2021/07/02 05:53:10;;;;;;;3.92;3.72;;;19.00;89.70;;;;;;5062731;28;20187;-72
2021/07/02 05:55:36;;;;;;;3.30;3.20;;;19.10;89.80;;;;;;5071047;28;20240;-72
2021/07/02 05:58:01;;;;;;;4.00;3.67;;;19.20;89.60;;;;;;5067049;28;20195;-72
2021/07/02 06:00:27;;;;;;;4.18;3.75;;;19.20;89.60;;;;;;5069036;28;20237;-72
2021/07/02 06:02:53;;;;;;;4.07;3.80;;;19.40;88.90;;;;;;5070418;28;20187;-72
2021/07/02 06:05:19;;;;;;;4.40;4.10;;;19.50;89.00;;;;;;5067394;28;20269;-73
2021/07/02 06:07:47;;;;;;;4.32;3.92;;;19.50;88.40;;;;;;5058789;28;20203;-72
2021/07/02 06:10:14;;;;;;;4.15;3.92;;;19.60;88.10;;;;;;5069760;28;20210;-72
2021/07/02 06:12:40;;;;;;;4.45;4.25;;;19.50;87.60;;;;;;5069974;28;20268;-72
2021/07/02 06:15:06;;;;;;;4.00;3.90;;;19.60;87.70;;;;;;5069828;28;20194;-71
2021/07/02 06:17:32;;;;;;;4.70;4.50;;;19.60;87.40;;;;;;5069931;28;20565;-72
2021/07/02 06:19:58;;;;;;;3.78;3.67;;;19.70;86.80;;;;;;5069249;28;20187;-72
2021/07/02 06:22:23;;;;;;;4.38;4.25;;;19.80;86.30;;;;;;5069584;28;20644;-72
2021/07/02 06:24:49;;;;;;;4.15;4.00;;;20.00;85.40;;;;;;5068533;28;20190;-71
2021/07/02 06:27:15;;;;;;;4.43;4.05;;;20.10;85.90;;;;;;5069358;28;20186;-72
2021/07/02 06:29:40;;;;;;;4.68;4.38;;;20.10;85.00;;;;;;5069727;28;20607;-72
2021/07/02 06:32:06;;;;;;;3.90;3.80;;;20.20;85.10;;;;;;5068757;28;20233;-72
2021/07/02 06:34:32;;;;;;;4.43;4.00;;;20.30;84.80;;;;;;5069152;28;20183;-73
2021/07/02 06:36:57;;;;;;;4.70;4.45;;;20.40;84.90;;;;;;5068133;28;20259;-73
2021/07/02 06:39:23;;;;;;;4.15;3.95;;;20.50;84.50;;;;;;5069530;28;20183;-72
2021/07/02 06:41:49;;;;;;;4.60;4.40;;;20.60;84.10;;;;;;5069370;28;20587;-73
2021/07/02 06:44:15;;;;;;;4.78;4.47;;;20.80;83.30;;;;;;5068850;28;20187;-73
2021/07/02 06:46:40;;;;;;;4.38;4.15;;;20.80;83.10;;;;;;5067235;28;20668;-73
2021/07/02 06:49:06;;;;;;;4.53;4.38;;;20.80;83.40;;;;;;5069128;28;20599;-73
2021/07/02 06:51:37;;;;;;;4.47;4.28;;;20.70;83.20;;;;;;5084663;28;20274;-74
2021/07/02 06:54:03;;;;;;;3.63;3.42;;;20.80;83.20;;;;;;5068261;28;20289;-73
2021/07/02 06:56:29;;;;;;;4.40;4.15;;;20.70;83.50;;;;;;5069416;28;20813;-73
2021/07/02 06:58:55;;;;;;;3.85;3.75;;;20.60;82.80;;;;;;5069192;28;20247;-73
2021/07/02 07:01:21;;;;;;;4.07;3.83;;;20.60;83.20;;;;;;5068796;28;20182;-73
2021/07/02 07:03:47;;;;;;;4.25;4.05;;;20.70;82.40;;;;;;5069266;28;20262;-73
2021/07/02 07:06:13;;;;;;;4.00;3.85;;;20.80;82.10;;;;;;5068710;28;20182;-74
2021/07/02 07:08:38;;;;;;;4.43;4.22;;;21.00;81.60;;;;;;5061196;28;20214;-73
2021/07/02 07:11:05;;;;;;;4.38;4.13;;;21.10;81.00;;;;;;5068746;28;20293;-74
2021/07/02 07:13:30;;;;;;;4.60;4.30;;;21.10;80.80;;;;;;5067321;28;20590;-74
2021/07/02 07:15:56;;;;;;;5.57;5.18;;;21.20;80.60;;;;;;5068737;28;20190;-71
2021/07/02 07:18:22;;;;;;;5.10;4.90;;;21.30;80.40;;;;;;5068654;28;20636;-71
2021/07/02 07:20:48;;;;;;;5.35;4.85;;;21.40;79.60;;;;;;5072931;28;20660;-71
2021/07/02 07:23:14;;;;;;;5.28;4.90;;;21.40;79.60;;;;;;5061779;28;20278;-71
2021/07/02 07:25:40;;;;;;;5.13;4.82;;;21.40;79.40;;;;;;5060716;28;20233;-71
2021/07/02 07:28:06;;;;;;;4.85;4.65;;;21.70;79.50;;;;;;5066100;28;20174;-71
2021/07/02 07:30:31;;;;;;;5.40;5.10;;;21.80;79.00;;;;;;5065620;28;20218;-72
2021/07/02 07:32:58;;;;;;;7.78;4.78;;;21.90;78.50;;;;;;5065415;28;20645;-72
2021/07/02 07:37:55;;;;;;;5.00;4.80;;;21.60;78.60;;;;;;5067775;28;20281;-73
2021/07/02 07:40:22;;;;;;;4.80;4.60;;;21.70;79.20;;;;;;5075523;28;20245;-73
2021/07/02 07:42:47;;;;;;;4.72;4.43;;;21.70;78.50;;;;;;5064149;28;20187;-74
2021/07/02 07:45:13;;;;;;;5.40;5.10;;;21.80;78.70;;;;;;5066072;28;20623;-73
2021/07/02 07:47:39;;;;;;;5.05;4.78;;;21.70;78.10;;;;;;5061604;28;20171;-74
2021/07/02 07:50:19;;;;;;;4.22;4.05;;;21.80;78.30;;;;;;5068021;28;20264;-74
2021/07/02 07:53:00;;;;;;;4.70;4.50;;;21.70;78.30;;;;;;5061099;28;20270;-74
2021/07/02 07:55:28;;;;;;;4.57;4.18;;;21.80;78.30;;;;;;5064198;28;20680;-73
2021/07/02 07:57:54;;;;;;;6.03;4.35;;;21.90;78.30;;;;;;5066908;28;20179;-73
2021/07/02 08:00:22;;;;;;;4.63;4.35;;;22.10;78.50;;;;;;5063493;28;20183;-73
2021/07/02 08:02:49;;;;;;;4.47;4.18;;;22.30;76.90;;;;;;5081899;28;20550;-73
2021/07/02 08:05:15;;;;;;;6.30;4.65;;;22.30;76.50;;;;;;5065527;28;20698;-73
2021/07/02 08:07:43;;;;;;;5.22;4.78;;;22.30;76.60;;;;;;5064616;28;20171;-73
2021/07/02 08:10:11;;;;;;;4.93;4.63;;;22.50;76.70;;;;;;5064591;28;20229;-73
2021/07/02 08:12:38;;;;;;;4.80;4.60;;;22.60;76.10;;;;;;5062803;28;20276;-72
2021/07/02 08:15:05;;;;;;;4.05;3.85;;;22.60;75.70;;;;;;5066405;28;20255;-72
2021/07/02 08:17:31;;;;;;;4.53;4.22;;;22.60;75.90;;;;;;5058316;28;20179;-73
2021/07/02 08:19:58;;;;;;;4.70;4.40;;;22.60;75.80;;;;;;5064837;28;20193;-73
2021/07/02 08:22:24;;;;;;;4.30;4.10;;;22.50;75.70;;;;;;5064410;28;20578;-73
2021/07/02 08:24:50;;;;;;;4.38;4.15;;;22.50;76.00;;;;;;5066321;28;20179;-73
2021/07/02 08:27:16;;;;;;;4.28;4.18;;;22.50;75.90;;;;;;5062389;28;20675;-73
2021/07/02 08:29:42;;;;;;;4.03;3.83;;;22.50;75.20;;;;;;5064146;28;20719;-73
2021/07/02 08:32:08;;;;;;;4.28;4.07;;;22.40;74.30;;;;;;5065906;28;20182;-74
2021/07/02 08:34:34;;;;;;;3.53;3.42;;;22.40;75.90;;;;;;5063945;28;20299;-73
2021/07/02 08:36:59;;;;;;;2.92;2.85;;;22.50;75.00;;;;;;5067431;28;20189;-73
2021/07/02 08:39:25;;;;;;;3.08;2.67;;;22.60;75.20;;;;;;5064609;28;20187;-73
2021/07/02 08:41:51;;;;;;;2.83;2.72;;;22.70;74.40;;;;;;5066003;28;20183;-73
2021/07/02 08:44:18;;;;;;;2.58;2.55;;;22.80;74.10;;;;;;5064128;28;20179;-73
2021/07/02 08:46:49;;;;;;;3.65;2.58;;;22.90;73.40;;;;;;5067683;28;20171;-73
2021/07/02 08:49:15;;;;;;;2.60;2.40;;;22.90;73.60;;;;;;5065772;28;20224;-73
2021/07/02 08:51:41;;;;;;;2.80;2.50;;;22.90;73.10;;;;;;5067160;28;20308;-74
2021/07/02 08:54:08;;;;;;;2.25;2.00;;;22.90;73.00;;;;;;5065590;28;20266;-74
2021/07/02 08:56:33;;;;;;;1.95;1.95;;;22.90;72.30;;;;;;5065035;28;20533;-73
2021/07/02 08:58:59;;;;;;;2.65;2.25;;;22.90;72.00;;;;;;5065671;28;20229;-74
2021/07/02 09:01:35;;;;;;;2.58;2.47;;;22.80;71.70;;;;;;5064261;28;20187;-74
2021/07/02 09:04:19;;;;;;;2.40;2.38;;;22.80;71.90;;;;;;5060488;28;20186;-73
2021/07/02 09:07:06;;;;;;;2.78;2.67;;;22.90;72.10;;;;;;5065280;28;20190;-73
2021/07/02 09:09:57;;;;;;;3.35;3.25;;;23.00;72.40;;;;;;5063973;28;20267;-74
2021/07/02 09:12:29;;;;;;;2.67;2.58;;;23.00;72.70;;;;;;5060875;28;20936;-73
2021/07/02 09:15:13;;;;;;;2.38;2.17;;;23.00;72.70;;;;;;5063897;28;20195;-73
2021/07/02 09:17:51;;;;;;;2.67;2.58;;;23.20;72.00;;;;;;5070789;28;20174;-74
2021/07/02 09:20:41;;;;;;;2.72;2.72;;;23.30;71.30;;;;;;5073102;28;20216;-73
2021/07/02 09:23:11;;;;;;;2.65;2.60;;;23.20;71.40;;;;;;5068458;28;20292;-73
2021/07/02 09:25:54;;;;;;;2.72;2.67;;;23.10;71.90;;;;;;5067148;28;20198;-73
2021/07/02 09:28:24;;;;;;;3.10;3.00;;;23.20;72.00;;;;;;5059612;28;20179;-73
2021/07/02 09:30:54;;;;;;;3.03;2.72;;;23.30;71.60;;;;;;5064062;28;20234;-73
2021/07/02 09:33:23;;;;;;;2.50;2.40;;;23.30;71.50;;;;;;5066987;28;20687;-73
2021/07/02 09:35:53;;;;;;;2.85;2.75;;;23.30;70.60;;;;;;5066346;28;20186;-73
2021/07/02 09:38:35;;;;;;;2.22;2.22;;;23.40;71.20;;;;;;5081013;28;20175;-73
2021/07/02 09:41:01;;;;;;;2.95;2.70;;;23.50;70.60;;;;;;5064435;28;20328;-73
2021/07/02 09:43:30;;;;;;;2.38;2.38;;;23.60;70.50;;;;;;5065367;28;20183;-73
2021/07/02 09:45:57;;;;;;;1.92;1.92;;;23.70;70.10;;;;;;5067767;28;20169;-73
2021/07/02 09:48:26;;;;;;;2.95;1.70;;;23.70;68.70;;;;;;5072675;28;20198;-74
2021/07/02 09:50:59;;;;;;;1.58;1.58;;;23.70;69.30;;;;;;5065921;28;20208;-73
2021/07/02 09:53:30;;;;;;;1.98;1.98;;;23.80;69.10;;;;;;5067871;28;21054;-73
2021/07/02 09:55:59;;;;;;;2.00;1.90;;;23.80;68.70;;;;;;5076274;28;20244;-73
2021/07/02 09:58:29;;;;;;;1.20;1.20;;;23.80;69.30;;;;;;5066856;28;20183;-73
2021/07/02 10:00:55;;;;;;;1.08;1.08;;;24.00;68.00;;;;;;5068150;28;20167;-74
2021/07/02 10:03:25;;;;;;;1.38;0.88;;;24.10;68.10;;;;;;5071291;28;20189;-73
2021/07/02 10:05:56;;;;;;;2.47;0.93;;;24.20;67.40;;;;;;5071746;28;20174;-74
2021/07/02 10:08:36;;;;;;;1.05;1.05;;;24.40;67.50;;;;;;5071593;28;20233;-73
2021/07/02 10:11:04;;;;;;;2.45;1.10;;;24.50;67.30;;;;;;5068545;28;20199;-73
2021/07/02 10:13:35;;;;;;;1.33;1.10;;;24.80;67.70;;;;;;5068127;28;20183;-73
2021/07/02 10:16:05;;;;;;;3.85;1.08;;;25.00;66.50;;;;;;5069142;28;20301;-73
2021/07/02 10:18:32;;;;;;;1.60;1.48;;;25.20;66.00;;;;;;5061496;28;20175;-73
2021/07/02 10:21:02;;;;;;;1.02;0.88;;;25.40;66.10;;;;;;5068542;28;20544;-73
2021/07/02 10:23:31;;;;;;;1.17;1.17;;;25.70;65.20;;;;;;5068931;28;20174;-73
2021/07/02 10:25:57;;;;;;;1.08;1.08;;;25.80;65.00;;;;;;5067059;28;20211;-72
2021/07/02 10:28:24;;;;;;;1.67;1.30;;;26.00;65.00;;;;;;5067059;28;20211;-73
2021/07/02 10:30:51;;;;;;;0.98;0.98;;;26.30;64.50;;;;;;5068335;28;20210;-72
2021/07/02 10:33:20;;;;;;;2.80;1.08;;;26.50;64.30;;;;;;5068721;28;20241;-73
2021/07/02 10:36:13;;;;;;;1.00;1.00;;;26.70;63.30;;;;;;5070727;28;20178;-71
2021/07/02 10:38:43;;;;;;;1.00;1.00;;;27.10;62.70;;;;;;5067332;28;20229;-74
2021/07/02 10:41:17;;;;;;;0.98;0.98;;;27.40;62.60;;;;;;5066786;28;20187;-73
2021/07/02 10:44:04;;;;;;;0.98;0.98;;;27.70;62.40;;;;;;5067657;28;20204;-73
2021/07/02 10:46:40;;;;;;;1.40;1.40;;;28.20;61.90;;;;;;5067743;28;20312;-73
2021/07/02 10:49:10;;;;;;;1.40;1.33;;;28.60;61.20;;;;;;5067815;28;20221;-73
2021/07/02 10:51:36;;;;;;;1.27;1.27;;;29.10;60.50;;;;;;5067812;28;20179;-73
2021/07/02 10:54:17;;;;;;;3.25;1.15;;;29.70;60.20;;;;;;5067592;28;20201;-73
2021/07/02 10:56:58;;;;;;;1.30;1.30;;;30.20;57.90;;;;;;5060183;28;20191;-73
2021/07/02 10:59:36;;;;;;;1.20;1.20;;;30.60;57.40;;;;;;5067513;28;20205;-73
2021/07/02 11:02:16;;;;;;;1.60;1.50;;;31.00;57.60;;;;;;5066234;28;20273;-73
2021/07/02 11:04:43;;;;;;;2.15;1.15;;;31.30;57.30;;;;;;5070866;28;20252;-73
2021/07/02 11:07:11;;;;;;;2.05;1.63;;;31.70;56.50;;;;;;5067409;28;20248;-73
2021/07/02 11:09:49;;;;;;;2.15;1.40;;;32.20;56.00;;;;;;5067520;28;20207;-73
2021/07/02 11:12:21;;;;;;;1.70;1.60;;;32.60;55.30;;;;;;5067399;28;20233;-73
2021/07/02 11:15:01;;;;;;;2.40;1.40;;;33.10;54.20;;;;;;5066958;28;20371;-74
2021/07/02 11:17:38;;;;;;;1.85;1.50;;;33.60;54.70;;;;;;5063137;28;20191;-73
2021/07/02 11:20:07;;;;;;;2.05;1.60;;;33.70;54.20;;;;;;5063086;28;20738;-73
2021/07/02 11:22:57;;;;;;;1.58;1.58;;;33.80;53.90;;;;;;5064584;28;20674;-72
2021/07/02 11:25:30;;;;;;;1.98;1.70;;;34.10;53.40;;;;;;5066599;28;20273;-69
2021/07/02 11:28:04;;;;;;;1.42;1.42;;;34.10;53.50;;;;;;5071117;28;20588;-72
2021/07/02 11:30:35;;;;;;;1.80;1.80;;;34.20;53.10;;;;;;5067235;28;20310;-72
2021/07/02 11:33:15;;;;;;;1.88;1.77;;;33.90;54.30;;;;;;5081296;28;20208;-73
2021/07/02 11:35:54;;;;;;;1.60;1.50;;;33.40;53.10;;;;;;5062136;28;20666;-72
2021/07/02 11:38:24;;;;;;;1.90;1.90;;;33.40;55.40;;;;;;5067975;28;20269;-72
2021/07/02 11:41:04;;;;;;;3.58;2.15;;;33.80;54.00;;;;;;5070637;28;20217;-72
2021/07/02 11:43:32;;;;;;;5.60;1.85;;;34.40;53.30;;;;;;5062842;28;20170;-72
2021/07/02 11:46:02;;;;;;;1.55;1.55;;;35.20;52.80;;;;;;5066770;28;20247;-72
2021/07/02 11:48:32;;;;;;;1.60;1.60;;;35.90;52.30;;;;;;5066305;28;20563;-72
2021/07/02 11:51:23;;;;;;;1.30;1.30;;;36.20;49.90;;;;;;5066598;28;20221;-72
2021/07/02 11:53:52;;;;;;;1.35;1.25;;;36.60;49.90;;;;;;5062540;28;20197;-73
2021/07/02 11:56:19;;;;;;;1.38;1.38;;;36.80;48.40;;;;;;5064428;28;20731;-72
2021/07/02 11:59:00;;;;;;;1.30;1.30;;;36.20;51.10;;;;;;5065766;28;20193;-73
2021/07/02 12:01:27;;;;;;;1.17;1.17;;;35.90;49.60;;;;;;5061937;28;20180;-73
2021/07/02 12:03:57;;;;;;;1.27;1.13;;;36.10;49.70;;;;;;5062164;28;20201;-72
2021/07/02 12:06:28;;;;;;;1.35;1.35;;;36.00;49.40;;;;;;5064178;28;20648;-73
2021/07/02 12:09:11;;;;;;;1.77;1.67;;;35.90;49.90;;;;;;5063724;28;20634;-73
2021/07/02 12:11:40;;;;;;;1.50;1.50;;;35.80;50.80;;;;;;5067992;28;20177;-72
2021/07/02 12:14:08;;;;;;;1.52;1.52;;;36.00;49.60;;;;;;5067192;28;20346;-72
2021/07/02 12:16:35;;;;;;;1.50;1.20;;;35.70;50.90;;;;;;5065481;28;20189;-72
2021/07/02 12:19:02;;;;;;;1.23;1.23;;;35.50;50.30;;;;;;5060873;28;20186;-73
2021/07/02 12:21:29;;;;;;;1.23;1.23;;;35.40;51.00;;;;;;5062416;28;20190;-72
2021/07/02 12:23:57;;;;;;;1.20;1.10;;;35.40;50.40;;;;;;5062340;28;20179;-72
2021/07/02 12:26:26;;;;;;;1.50;1.50;;;35.80;50.00;;;;;;5065404;28;20232;-73
2021/07/02 12:29:09;;;;;;;1.60;1.50;;;36.20;49.90;;;;;;5070607;28;20479;-73
2021/07/02 12:31:43;;;;;;;2.40;1.35;;;36.60;48.00;;;;;;5062645;28;20178;-72
2021/07/02 12:34:24;;;;;;;4.38;1.50;;;36.90;48.20;;;;;;5064734;28;20264;-72
2021/07/02 12:37:10;;;;;;;1.60;1.50;;;37.30;49.60;;;;;;5063174;28;20191;-72
2021/07/02 12:39:37;;;;;;;1.00;1.00;;;37.70;46.80;;;;;;5065722;28;20184;-72
2021/07/02 12:42:12;;;;;;;1.67;1.13;;;37.60;48.20;;;;;;5063655;28;20182;-72
2021/07/02 12:44:39;;;;;;;1.42;1.42;;;37.60;47.10;;;;;;5071390;28;20181;-72
2021/07/02 12:47:11;;;;;;;1.40;1.40;;;37.20;48.90;;;;;;5057357;28;20274;-73
2021/07/02 12:49:47;;;;;;;1.35;1.35;;;36.80;48.40;;;;;;5062261;28;20214;-72
2021/07/02 12:54:54;;;;;;;1.63;1.63;;;35.80;50.10;;;;;;5061939;28;21059;-73
2021/07/02 12:57:23;;;;;;;1.50;1.50;;;35.70;49.00;;;;;;5078678;28;20223;-73
2021/07/02 12:59:50;;;;;;;1.60;1.60;;;35.60;48.70;;;;;;5061512;28;20568;-72